Hlavní strana
METAR-TAF:

METAR-TAF

Letiště :

Bejrút, Libanon

zeměpisná šířka: 33-49N, zeměpisná délka: 035-29E, výška: 29 m

Aktuální stav počasí

Zpráva byla vytvořena před 51 minutami, v 04:00 UTC
Jihovýchodní vítr 7 kt
Teplota 17°C
Vlhkost vzduchu 59%
Tlak 1023 hPa
Viditelnost: 8000 m
Skoro jasno ve výšce 2600 ft

METAR: OLBA 170400Z 13007KT 8000 FEW026 17/09 Q1023 NOSIG

Čas: 06:51 (04:51 UTC)

Předpověď počasí

Zpráva byla vytvořena před 6 hodinami a 51 minutami, v 22:00 UTC
Předpověď platná od 17 v 00 UTC do 18 v 06 UTC
Severovýchodní vítr 8 kt
Viditelnost 10 km a více
Polojasno ve výšce 3000 ft
Polojasno ve výšce 18000 ft
Změna
od 17 v 06 UTC do 17 v 09 UTC
Severoseverovýchodní vítr 8 kt
Skoro jasno ve výšce 3000 ft
Polojasno ve výšce 18000 ft
Změna
od 17 v 18 UTC do 17 v 21 UTC
Severovýchodní vítr 10 kt
Viditelnost 10 km a více
Žádná oblačnost pod 1500 m, nevyskytují se cumulonimby.

TAF: OLBA 162200Z 1700/1806 04008KT 9999 SCT030 SCT180 BECMG 1706/1709 02008KT FEW030 SCT180 BECMG 1718/1721 05010KT CAVOK

Stav a předpovědi počasí z více než 4 000 letišť (zprávy METAR a TAF).

Červené a žluté tečky na mapě představují dostupné meteorologické stanice.

Když kurzor umístíte na tečku, zobrazí se název stanice.

Pak kliknutím zobrazíte stav a předpověď počasí.

Chcete-li změnit mapu, kliknutím na zelené tlačítko se znaménkem +mapu přiblížíte, kliknutím na zelené tlačítko se znaménkem – mapu oddálíte a kliknutím na zelené šipky přejdete na sousední mapy.


METAR-TAF: